createdAt,value
2023-02-14T00:01:36.891Z,102070.03
2023-02-14T00:04:43.800Z,102037.28
2023-02-14T00:07:46.307Z,102048.47
2023-02-14T00:10:48.926Z,102071.59
2023-02-14T00:14:09.825Z,102069.97
2023-02-14T00:17:12.770Z,102051.13
2023-02-14T00:20:15.357Z,102076.41
2023-02-14T00:23:18.003Z,102070.69
2023-02-14T00:26:20.294Z,102065.50
2023-02-14T00:29:26.228Z,102065.19
2023-02-14T00:32:29.457Z,102060.78
2023-02-14T00:35:32.049Z,102062.19
2023-02-14T00:38:34.803Z,102059.72
2023-02-14T00:41:37.715Z,102053.75
2023-02-14T00:44:40.613Z,102034.66
2023-02-14T00:47:43.313Z,102050.50
2023-02-14T00:50:47.233Z,102043.87
2023-02-14T00:53:51.322Z,102082.22
2023-02-14T00:56:53.650Z,102078.09
2023-02-14T00:59:56.277Z,102045.56
2023-02-14T01:02:58.645Z,102079.41
2023-02-14T01:06:01.327Z,102072.81
2023-02-14T01:09:05.433Z,102036.56
2023-02-14T01:12:08.147Z,102060.25
2023-02-14T01:15:10.704Z,102060.25
2023-02-14T01:18:13.941Z,102057.44
2023-02-14T01:21:17.760Z,102026.91
2023-02-14T01:24:20.243Z,102047.13
2023-02-14T01:27:22.493Z,102041.94
2023-02-14T01:30:25.950Z,102013.84
2023-02-14T01:33:28.369Z,102044.09
2023-02-14T01:36:37.568Z,102016.50
2023-02-14T01:39:41.394Z,102027.06
2023-02-14T01:42:44.026Z,102004.22
2023-02-14T01:45:46.245Z,102031.13
2023-02-14T01:48:49.528Z,102038.78
2023-02-14T01:52:12.021Z,102011.28
2023-02-14T01:55:19.444Z,102042.09
2023-02-14T01:58:25.540Z,102039.34
2023-02-14T02:01:30.837Z,102043.41
2023-02-14T02:04:45.543Z,101998.97
2023-02-14T02:07:48.477Z,102036.56
2023-02-14T02:10:51.378Z,102035.66
2023-02-14T02:13:55.939Z,102031.03
2023-02-14T02:17:24.944Z,102025.66
2023-02-14T02:20:46.380Z,102016.91
2023-02-14T02:24:03.037Z,102009.78
2023-02-14T02:27:34.251Z,102006.56
2023-02-14T02:30:51.086Z,102010.06
2023-02-14T02:33:53.529Z,102012.53
2023-02-14T02:37:15.228Z,102009.56
2023-02-14T02:40:39.410Z,102013.84
2023-02-14T02:44:17.351Z,102013.09
2023-02-14T02:47:38.769Z,101985.34
2023-02-14T02:51:08.256Z,101997.16
2023-02-14T02:54:20.072Z,102007.06
2023-02-14T02:57:28.373Z,102000.47
2023-02-14T03:00:30.991Z,101976.78
2023-02-14T03:03:56.154Z,101975.72
2023-02-14T03:07:00.000Z,101981.44
2023-02-14T03:10:25.572Z,102006.50
2023-02-14T03:13:51.673Z,101997.75
2023-02-14T03:17:06.959Z,101976.47
2023-02-14T03:20:19.353Z,102005.09
2023-02-14T03:23:25.385Z,101974.06
2023-02-14T03:26:36.781Z,102001.81
2023-02-14T03:30:10.298Z,101970.69
2023-02-14T03:33:20.940Z,102004.69
2023-02-14T03:36:49.755Z,101996.03
2023-02-14T03:40:09.882Z,102002.72
2023-02-14T03:43:19.476Z,101999.75
2023-02-14T03:46:50.023Z,102005.19
2023-02-14T03:50:02.112Z,101998.50
2023-02-14T03:53:10.277Z,101991.34
2023-02-14T03:56:41.321Z,102007.28
2023-02-14T03:59:44.203Z,101978.03
2023-02-14T04:02:53.133Z,101978.38
2023-02-14T04:05:56.328Z,101981.84
2023-02-14T04:08:58.817Z,102001.72
2023-02-14T04:12:01.556Z,101977.97
2023-02-14T04:15:04.580Z,101973.28
2023-02-14T04:18:27.429Z,101971.94
2023-02-14T04:21:29.743Z,102000.03
2023-02-14T04:24:32.384Z,101996.19
2023-02-14T04:27:34.782Z,101998.00
2023-02-14T04:30:37.576Z,102001.56
2023-02-14T04:33:39.911Z,102006.47
2023-02-14T04:36:42.522Z,101977.31
2023-02-14T04:39:44.821Z,102005.28
2023-02-14T04:42:47.511Z,101983.34
2023-02-14T04:45:50.006Z,102013.03
2023-02-14T04:48:52.660Z,101988.53
2023-02-14T04:51:55.118Z,101983.34
2023-02-14T04:54:58.097Z,101981.66
2023-02-14T04:58:00.463Z,102005.28
2023-02-14T05:01:03.427Z,102002.63
2023-02-14T05:04:06.076Z,101975.44
2023-02-14T05:07:08.735Z,102004.16
2023-02-14T05:10:11.282Z,102009.25
2023-02-14T05:13:14.437Z,102010.91
2023-02-14T05:16:16.858Z,101974.91
2023-02-14T05:19:19.586Z,102008.44
2023-02-14T05:22:21.867Z,101968.87
2023-02-14T05:25:24.459Z,102003.97
2023-02-14T05:28:26.818Z,101977.31
2023-02-14T05:31:29.659Z,102005.06
2023-02-14T05:34:32.170Z,102013.22
2023-02-14T05:37:34.747Z,101988.78
2023-02-14T05:40:37.068Z,101992.66
2023-02-14T05:43:39.726Z,102007.50
2023-02-14T05:46:42.123Z,101995.38
2023-02-14T05:49:44.681Z,102010.25
2023-02-14T05:52:47.027Z,102012.41
2023-02-14T05:55:49.660Z,101985.16
2023-02-14T05:58:52.022Z,102008.00
2023-02-14T06:01:54.756Z,102011.22
2023-02-14T06:04:57.478Z,101985.16
2023-02-14T06:08:00.832Z,101994.62
2023-02-14T06:11:04.342Z,102022.94
2023-02-14T06:14:06.638Z,102012.25
2023-02-14T06:17:10.125Z,101999.03
2023-02-14T06:20:12.707Z,101995.22
2023-02-14T06:23:15.297Z,102037.47
2023-02-14T06:26:17.742Z,102013.56
2023-02-14T06:29:20.494Z,102037.00
2023-02-14T06:32:23.237Z,102048.72
2023-02-14T06:35:25.874Z,102027.56
2023-02-14T06:38:28.184Z,102029.56
2023-02-14T06:41:31.128Z,102042.94
2023-02-14T06:44:33.611Z,102071.03
2023-02-14T06:47:36.642Z,102074.16
2023-02-14T06:50:39.045Z,102051.88
2023-02-14T06:53:41.749Z,102063.41
2023-02-14T06:56:44.148Z,102052.78
2023-02-14T06:59:46.749Z,102080.59
2023-02-14T07:02:49.112Z,102082.56
2023-02-14T07:05:52.682Z,102071.50
2023-02-14T07:08:55.027Z,102050.69
2023-02-14T07:11:57.768Z,102080.50
2023-02-14T07:15:00.104Z,102081.91
2023-02-14T07:18:03.333Z,102095.19
2023-02-14T07:21:06.021Z,102090.19
2023-02-14T07:24:08.804Z,102051.28
2023-02-14T07:27:11.099Z,102083.28
2023-02-14T07:30:14.627Z,102093.00
2023-02-14T07:33:16.981Z,102097.84
2023-02-14T07:36:19.693Z,102097.91
2023-02-14T07:39:22.049Z,102086.66
2023-02-14T07:42:24.751Z,102071.22
2023-02-14T07:45:27.820Z,102106.53
2023-02-14T07:48:33.134Z,102106.75
2023-02-14T07:51:36.606Z,102112.69
2023-02-14T07:54:39.585Z,102121.97
2023-02-14T07:57:42.047Z,102090.69
2023-02-14T08:00:46.563Z,102097.53
2023-02-14T08:03:49.705Z,102109.88
2023-02-14T08:06:54.105Z,102127.63
2023-02-14T08:09:56.807Z,102112.41
2023-02-14T08:12:59.219Z,102087.97
2023-02-14T08:16:07.645Z,102106.75
2023-02-14T08:19:10.145Z,102104.91
2023-02-14T08:22:13.161Z,102114.69
2023-02-14T08:25:15.539Z,102110.72
2023-02-14T08:28:22.721Z,102118.53
2023-02-14T08:31:35.743Z,102126.28
2023-02-14T08:34:38.972Z,102130.91
2023-02-14T08:37:41.563Z,102100.28
2023-02-14T08:40:44.519Z,102108.88
2023-02-14T08:43:46.981Z,102099.41
2023-02-14T08:46:49.738Z,102104.87
2023-02-14T08:49:52.292Z,102123.09
2023-02-14T08:52:54.986Z,102116.16
2023-02-14T08:56:02.073Z,102120.38
2023-02-14T08:59:04.993Z,102124.78
2023-02-14T09:02:07.354Z,102115.66
2023-02-14T09:05:13.443Z,102104.44
2023-02-14T09:08:16.367Z,102125.84
2023-02-14T09:11:22.951Z,102122.22
2023-02-14T09:14:25.325Z,102114.31
2023-02-14T09:17:28.098Z,102113.00
2023-02-14T09:20:30.422Z,102104.53
2023-02-14T09:23:33.238Z,102085.44
2023-02-14T09:26:37.021Z,102118.69
2023-02-14T09:29:40.186Z,102123.31
2023-02-14T09:32:42.720Z,102126.22
2023-02-14T09:36:03.939Z,102099.31
2023-02-14T09:39:06.392Z,102116.75
2023-02-14T09:42:33.764Z,102129.69
2023-02-14T09:45:37.183Z,102139.59
2023-02-14T09:48:43.832Z,102142.03
2023-02-14T09:51:51.819Z,102128.41
2023-02-14T09:55:00.844Z,102116.62
2023-02-14T09:58:12.317Z,102116.53
2023-02-14T10:01:21.278Z,102141.47
2023-02-14T10:04:43.539Z,102121.66
2023-02-14T10:08:03.738Z,102109.06
2023-02-14T10:11:10.828Z,102138.91
2023-02-14T10:14:21.135Z,102131.91
2023-02-14T10:17:40.740Z,102115.34
2023-02-14T10:20:51.529Z,102131.63
2023-02-14T10:24:02.125Z,102123.22
2023-02-14T10:27:43.910Z,102080.81
2023-02-14T10:31:00.501Z,102120.16
2023-02-14T10:34:17.087Z,102114.00
2023-02-14T10:37:31.857Z,102088.13
2023-02-14T10:41:08.294Z,102114.09
2023-02-14T10:44:41.927Z,102104.44
2023-02-14T10:47:59.329Z,102106.06
2023-02-14T10:51:05.352Z,102109.25
2023-02-14T10:54:26.042Z,102073.38
2023-02-14T10:57:35.578Z,102095.44
2023-02-14T11:00:41.223Z,102071.09
2023-02-14T11:03:58.623Z,102060.06
2023-02-14T11:07:01.143Z,102082.53
2023-02-14T11:10:14.287Z,102079.75
2023-02-14T11:13:39.556Z,102005.12
2023-02-14T11:16:42.275Z,102084.13
2023-02-14T11:19:59.870Z,102080.91
2023-02-14T11:23:17.358Z,102089.16
2023-02-14T11:26:26.694Z,102090.75
2023-02-14T11:29:30.993Z,102066.97
2023-02-14T11:32:37.568Z,102074.34
2023-02-14T11:35:41.611Z,102081.00
2023-02-14T11:38:45.254Z,102044.75
2023-02-14T11:41:49.730Z,102085.84
2023-02-14T11:44:58.391Z,102077.75
2023-02-14T11:48:10.087Z,102076.59
2023-02-14T11:51:14.362Z,102075.09
2023-02-14T11:54:45.041Z,102048.41
2023-02-14T11:57:47.439Z,102064.59
2023-02-14T12:00:54.669Z,102062.28
2023-02-14T12:04:01.347Z,102074.25
2023-02-14T12:07:33.542Z,102074.19
2023-02-14T12:10:38.692Z,102069.44
2023-02-14T12:13:41.137Z,102069.06
2023-02-14T12:17:12.722Z,102044.25
2023-02-14T12:20:31.885Z,102061.06
2023-02-14T12:24:04.965Z,102061.91
2023-02-14T12:27:17.453Z,102053.22
2023-02-14T12:30:25.156Z,102058.47
2023-02-14T12:33:28.618Z,102046.69
2023-02-14T12:37:00.702Z,102037.84
2023-02-14T12:40:18.018Z,101953.34
2023-02-14T12:43:39.101Z,102032.94
2023-02-14T12:46:51.436Z,102031.59
2023-02-14T12:50:14.374Z,102027.38
2023-02-14T12:53:44.226Z,102018.38
2023-02-14T12:56:55.884Z,102025.09
2023-02-14T13:00:17.606Z,102025.25
2023-02-14T13:03:38.544Z,101988.03
2023-02-14T13:07:03.717Z,102009.28
2023-02-14T13:10:25.164Z,101989.78
2023-02-14T13:13:48.949Z,101987.56
2023-02-14T13:17:00.917Z,102010.25
2023-02-14T13:20:26.532Z,101995.94
2023-02-14T13:23:52.912Z,102003.56
2023-02-14T13:27:00.193Z,102000.97
2023-02-14T13:30:23.187Z,101986.09
2023-02-14T13:33:38.028Z,102009.25
2023-02-14T13:36:45.610Z,101981.50
2023-02-14T13:39:59.334Z,101920.44
2023-02-14T13:43:02.924Z,102003.81
2023-02-14T13:46:05.549Z,102000.28
2023-02-14T13:49:26.973Z,101991.97
2023-02-14T13:52:44.104Z,102000.63
2023-02-14T13:55:48.815Z,101961.34
2023-02-14T13:58:55.098Z,101935.69
2023-02-14T14:02:23.506Z,101962.28
2023-02-14T14:05:40.501Z,101960.28
2023-02-14T14:08:49.173Z,101989.53
2023-02-14T14:11:52.240Z,101962.37
2023-02-14T14:15:06.582Z,101998.59
2023-02-14T14:18:15.542Z,101996.63
2023-02-14T14:21:59.482Z,101996.88
2023-02-14T14:25:06.483Z,101981.81
2023-02-14T14:28:27.216Z,101958.25
2023-02-14T14:31:30.236Z,101958.56
2023-02-14T14:34:32.637Z,101985.94
2023-02-14T14:37:46.034Z,101968.16
2023-02-14T14:40:50.062Z,101993.25
2023-02-14T14:43:53.095Z,101985.97
2023-02-14T14:46:59.811Z,101975.69
2023-02-14T14:50:14.297Z,101977.81
2023-02-14T14:53:25.365Z,101983.19
2023-02-14T14:56:31.867Z,101976.97
2023-02-14T14:59:36.193Z,101981.75
2023-02-14T15:02:38.984Z,101980.22
2023-02-14T15:05:43.902Z,101975.28
2023-02-14T15:08:48.604Z,101977.50
2023-02-14T15:12:11.488Z,101945.81
2023-02-14T15:15:17.754Z,101978.09
2023-02-14T15:18:21.554Z,101951.34
2023-02-14T15:21:27.792Z,101974.38
2023-02-14T15:24:31.610Z,101938.28
2023-02-14T15:27:39.120Z,101987.09
2023-02-14T15:30:44.190Z,101956.38
2023-02-14T15:33:47.211Z,101964.19
2023-02-14T15:36:52.205Z,101987.75
2023-02-14T15:39:56.319Z,101980.91
2023-02-14T15:43:16.042Z,101980.69
2023-02-14T15:46:24.685Z,101953.91
2023-02-14T15:49:36.585Z,101985.41
2023-02-14T15:52:41.434Z,101979.69
2023-02-14T15:55:44.600Z,101979.16
2023-02-14T15:58:49.584Z,101943.00
2023-02-14T16:02:01.684Z,101958.13
2023-02-14T16:05:19.423Z,101978.94
2023-02-14T16:08:35.205Z,101986.94
2023-02-14T16:11:38.602Z,101993.56
2023-02-14T16:14:45.742Z,101968.13
2023-02-14T16:17:48.979Z,101994.75
2023-02-14T16:20:51.385Z,101999.69
2023-02-14T16:24:12.099Z,101977.56
2023-02-14T16:27:14.488Z,102010.75
2023-02-14T16:30:18.900Z,102001.97
2023-02-14T16:33:34.133Z,101977.62
2023-02-14T16:36:36.772Z,101993.81
2023-02-14T16:39:39.754Z,101991.06
2023-02-14T16:42:43.260Z,102019.03
2023-02-14T16:45:46.128Z,102010.00
2023-02-14T16:48:52.844Z,102016.34
2023-02-14T16:52:04.348Z,102019.63
2023-02-14T16:55:15.326Z,102030.59
2023-02-14T16:58:19.633Z,101953.84
2023-02-14T17:01:22.221Z,102007.28
2023-02-14T17:04:24.733Z,102028.44
2023-02-14T17:07:30.657Z,101997.72
2023-02-14T17:10:40.390Z,102032.28
2023-02-14T17:13:44.652Z,102001.31
2023-02-14T17:16:46.959Z,102041.59
2023-02-14T17:19:51.530Z,102046.00
2023-02-14T17:22:55.578Z,102050.94
2023-02-14T17:25:58.202Z,102016.66
2023-02-14T17:29:00.671Z,102026.78
2023-02-14T17:32:03.447Z,102007.84
2023-02-14T17:35:08.866Z,102020.47
2023-02-14T17:38:11.989Z,102020.75
2023-02-14T17:41:16.960Z,102023.19
2023-02-14T17:44:19.766Z,102041.03
2023-02-14T17:47:22.190Z,102041.56
2023-02-14T17:50:24.890Z,102048.97
2023-02-14T17:53:27.226Z,102050.34
2023-02-14T17:56:29.902Z,102046.47
2023-02-14T17:59:32.985Z,102045.09
2023-02-14T18:02:35.668Z,102041.00
2023-02-14T18:05:38.328Z,102024.81
2023-02-14T18:08:46.220Z,102040.44
2023-02-14T18:11:50.022Z,102008.63
2023-02-14T18:14:53.378Z,102033.31
2023-02-14T18:17:56.070Z,102031.69
2023-02-14T18:21:01.388Z,102030.00
2023-02-14T18:24:04.767Z,102026.16
2023-02-14T18:27:07.326Z,102039.59
2023-02-14T18:30:10.882Z,102031.62
2023-02-14T18:33:13.366Z,102019.00
2023-02-14T18:36:18.802Z,102015.97
2023-02-14T18:39:22.679Z,102017.91
2023-02-14T18:42:25.402Z,102004.16
2023-02-14T18:45:27.999Z,101991.25
2023-02-14T18:48:31.802Z,101998.12
2023-02-14T18:51:39.409Z,101989.34
2023-02-14T18:54:42.238Z,102001.94
2023-02-14T18:57:44.609Z,101995.38
2023-02-14T19:00:47.256Z,101997.81
2023-02-14T19:03:51.162Z,102020.28
2023-02-14T19:06:53.827Z,102029.31
2023-02-14T19:09:56.472Z,102003.50
2023-02-14T19:12:59.748Z,102006.78
2023-02-14T19:16:09.458Z,102014.41
2023-02-14T19:19:12.235Z,102033.09
2023-02-14T19:22:14.498Z,102023.78
2023-02-14T19:25:17.262Z,101989.16
2023-02-14T19:28:20.680Z,102010.00
2023-02-14T19:31:24.265Z,102015.25
2023-02-14T19:34:31.436Z,102001.22
2023-02-14T19:37:34.121Z,102020.13
2023-02-14T19:40:36.464Z,102010.00
2023-02-14T19:43:39.818Z,102026.97
2023-02-14T19:46:43.240Z,102028.25
2023-02-14T19:49:45.846Z,102036.72
2023-02-14T19:52:48.173Z,102032.94
2023-02-14T19:55:50.784Z,102036.72
2023-02-14T19:58:53.991Z,102003.78
2023-02-14T20:01:58.325Z,102026.25
2023-02-14T20:05:04.320Z,102027.91
2023-02-14T20:08:06.768Z,102034.44
2023-02-14T20:11:22.667Z,102040.69
2023-02-14T20:14:43.606Z,102033.22
2023-02-14T20:17:52.954Z,102027.25
2023-02-14T20:21:04.562Z,102028.91
2023-02-14T20:24:08.794Z,102005.81
2023-02-14T20:27:12.446Z,102005.28
2023-02-14T20:30:15.621Z,102034.38
2023-02-14T20:33:17.908Z,102034.84
2023-02-14T20:36:20.734Z,101981.31
2023-02-14T20:39:28.677Z,102037.88
2023-02-14T20:42:31.320Z,102037.59
2023-02-14T20:45:33.725Z,102039.22
2023-02-14T20:48:36.546Z,102015.03
2023-02-14T20:51:39.106Z,102007.34
2023-02-14T20:54:41.784Z,102034.78
2023-02-14T20:57:44.221Z,101996.94
2023-02-14T21:00:48.875Z,102020.25
2023-02-14T21:03:53.376Z,102026.53
2023-02-14T21:06:57.885Z,102025.97
2023-02-14T21:10:00.303Z,102031.94
2023-02-14T21:13:02.957Z,102010.53
2023-02-14T21:16:08.203Z,102022.87
2023-02-14T21:19:10.946Z,101988.00
2023-02-14T21:22:13.293Z,101989.34
2023-02-14T21:25:15.938Z,102017.06
2023-02-14T21:28:18.259Z,101992.28
2023-02-14T21:31:21.867Z,102020.88
2023-02-14T21:34:26.942Z,102026.28
2023-02-14T21:37:29.663Z,102001.59
2023-02-14T21:40:32.296Z,102031.16
2023-02-14T21:43:37.323Z,101998.66
2023-02-14T21:46:41.087Z,102008.50
2023-02-14T21:50:02.539Z,102025.53
2023-02-14T21:53:07.578Z,102009.53
2023-02-14T21:56:13.159Z,102030.53
2023-02-14T21:59:15.557Z,102037.16
2023-02-14T22:02:18.262Z,102008.06
2023-02-14T22:05:21.301Z,102010.41
2023-02-14T22:08:23.570Z,102022.25
2023-02-14T22:11:28.135Z,102007.47
2023-02-14T22:14:30.508Z,102043.13
2023-02-14T22:17:33.727Z,102043.06
2023-02-14T22:20:36.102Z,102021.00
2023-02-14T22:23:39.119Z,102021.53
2023-02-14T22:26:41.726Z,102018.75
2023-02-14T22:29:44.379Z,102024.44
2023-02-14T22:32:46.742Z,102049.66
2023-02-14T22:35:54.965Z,102047.63
2023-02-14T22:38:57.578Z,102055.59
2023-02-14T22:42:05.229Z,102027.91
2023-02-14T22:45:08.709Z,102021.56
2023-02-14T22:48:11.377Z,102059.16
2023-02-14T22:51:22.459Z,102057.94
2023-02-14T22:54:25.154Z,102055.72
2023-02-14T22:57:27.662Z,102031.00
2023-02-14T23:00:30.800Z,102056.87
2023-02-14T23:03:33.290Z,102047.47
2023-02-14T23:06:37.118Z,102016.56
2023-02-14T23:09:39.432Z,102041.72
2023-02-14T23:13:17.125Z,102018.91
2023-02-14T23:16:38.211Z,102040.75
2023-02-14T23:19:59.470Z,102021.47
2023-02-14T23:23:01.757Z,102048.06
2023-02-14T23:26:04.371Z,102046.16
2023-02-14T23:29:06.668Z,102016.53
2023-02-14T23:32:09.999Z,102034.09
2023-02-14T23:35:12.488Z,102041.19
2023-02-14T23:38:15.102Z,102036.84
2023-02-14T23:41:36.293Z,102003.75
2023-02-14T23:44:38.940Z,101980.66
2023-02-14T23:47:41.241Z,102013.06
2023-02-14T23:50:43.850Z,102042.03
2023-02-14T23:53:46.162Z,102010.78
2023-02-14T23:56:49.904Z,102029.28
2023-02-14T23:59:53.028Z,102046.59
